Time;durP1;ratioP1;P1;durP2;ratioP2;P2;SDS_P1;SDS_P2;PMS_P1;PMS_P2;Temp;Humidity;BMP_temperature;BMP_pressure;BME280_temperature;BME280_humidity;BME280_pressure;Samples;Min_cycle;Max_cycle;Signal;HPM_P1;HPM_P2
2022/07/04 00:02:14;;;;;;;;;;;13.80;99.90;;;;;;4999971;28;20001;-63
2022/07/04 00:04:39;;;;;;;;;;;13.60;99.90;;;;;;5004800;28;20004;-63
2022/07/04 00:07:05;;;;;;;;;;;13.90;99.90;;;;;;5005405;28;19936;-63
2022/07/04 00:09:30;;;;;;;;;;;13.80;99.90;;;;;;5000284;28;19956;-63
2022/07/04 00:11:56;;;;;;;;;;;14.30;99.90;;;;;;5006746;28;19948;-63
2022/07/04 00:14:21;;;;;;;;;;;14.10;99.90;;;;;;5000188;28;20547;-63
2022/07/04 00:16:47;;;;;;;;;;;13.80;99.90;;;;;;4999542;28;19918;-63
2022/07/04 00:19:12;;;;;;;;;;;13.70;99.90;;;;;;5000347;28;19987;-63
2022/07/04 00:21:38;;;;;;;;;;;13.40;99.90;;;;;;4997358;28;20380;-63
2022/07/04 00:24:04;;;;;;;;;;;13.20;99.90;;;;;;5004323;28;19909;-63
2022/07/04 00:26:29;;;;;;;;;;;13.00;99.90;;;;;;4977177;28;19910;-63
2022/07/04 00:28:55;;;;;;;;;;;12.80;99.90;;;;;;4999745;28;19956;-63
2022/07/04 00:31:20;;;;;;;;;;;12.70;99.90;;;;;;4998897;28;19918;-63
2022/07/04 00:33:46;;;;;;;;;;;12.50;99.90;;;;;;4997777;28;20370;-63
2022/07/04 00:36:11;;;;;;;;;;;12.40;99.90;;;;;;4996867;28;19925;-63
2022/07/04 00:38:37;;;;;;;;;;;12.30;99.90;;;;;;4999180;28;19965;-63
2022/07/04 00:41:03;;;;;;;;;;;12.20;99.90;;;;;;4998428;28;19921;-63
2022/07/04 00:43:28;;;;;;;;;;;12.20;99.90;;;;;;4981344;28;19960;-63
2022/07/04 00:45:54;;;;;;;;;;;12.20;99.90;;;;;;5002885;28;20000;-63
2022/07/04 00:48:19;;;;;;;;;;;12.20;99.90;;;;;;4998120;28;20271;-63
2022/07/04 00:50:46;;;;;;;;;;;12.10;99.90;;;;;;4994655;28;19909;-63
2022/07/04 00:53:15;;;;;;;;;;;12.10;99.90;;;;;;4982500;28;19957;-63
2022/07/04 00:55:41;;;;;;;;;;;12.10;99.90;;;;;;4997776;28;19921;-63
2022/07/04 00:58:07;;;;;;;;;;;12.00;99.90;;;;;;4994791;28;19914;-63
2022/07/04 01:00:32;;;;;;;;;;;12.10;99.90;;;;;;4997066;28;19929;-63
2022/07/04 01:02:58;;;;;;;;;;;12.00;99.90;;;;;;4997824;28;19914;-63
2022/07/04 01:05:24;;;;;;;;;;;11.90;99.90;;;;;;4993347;28;20065;-63
2022/07/04 01:07:50;;;;;;;;;;;11.80;99.90;;;;;;4999521;28;19937;-63
2022/07/04 01:10:15;;;;;;;;;;;11.80;99.90;;;;;;4999193;28;20417;-63
2022/07/04 01:12:41;;;;;;;;;;;11.70;99.90;;;;;;5000875;28;19917;-63
2022/07/04 01:15:07;;;;;;;;;;;11.70;99.90;;;;;;4992814;28;19910;-63
2022/07/04 01:17:32;;;;;;;;;;;11.70;99.90;;;;;;4997147;28;19913;-63
2022/07/04 01:19:58;;;;;;;;;;;11.60;99.90;;;;;;4996549;28;20293;-63
2022/07/04 01:22:24;;;;;;;;;;;11.60;99.90;;;;;;4996611;28;19914;-63
2022/07/04 01:24:50;;;;;;;;;;;11.70;99.90;;;;;;4988292;28;20341;-63
2022/07/04 01:27:16;;;;;;;;;;;11.70;99.90;;;;;;4996806;28;19960;-63
2022/07/04 01:29:42;;;;;;;;;;;11.70;99.90;;;;;;4999039;28;19910;-63
2022/07/04 01:32:08;;;;;;;;;;;11.70;99.90;;;;;;4995598;28;19920;-63
2022/07/04 01:34:33;;;;;;;;;;;11.80;99.90;;;;;;4980900;28;19910;-63
2022/07/04 01:36:59;;;;;;;;;;;12.00;99.90;;;;;;4996788;28;19922;-63
2022/07/04 01:39:25;;;;;;;;;;;12.10;99.90;;;;;;4991588;28;20771;-63
2022/07/04 01:41:51;;;;;;;;;;;12.10;99.90;;;;;;4996139;28;19914;-63
2022/07/04 01:44:16;;;;;;;;;;;12.00;99.90;;;;;;5001298;28;20277;-63
2022/07/04 01:46:42;;;;;;;;;;;12.00;99.90;;;;;;4980106;28;19917;-63
2022/07/04 01:49:08;;;;;;;;;;;12.00;99.90;;;;;;4993011;28;19910;-63
2022/07/04 01:51:34;;;;;;;;;;;12.00;99.90;;;;;;4999731;28;19910;-63
2022/07/04 01:53:59;;;;;;;;;;;12.10;99.90;;;;;;4998463;28;19913;-63
2022/07/04 01:56:25;;;;;;;;;;;12.00;99.90;;;;;;5000068;28;20385;-63
2022/07/04 01:58:50;;;;;;;;;;;12.20;99.90;;;;;;4999543;28;19914;-63
2022/07/04 02:01:31;;;;;;;;;;;12.50;99.90;;;;;;4987106;28;19967;-63
2022/07/04 02:03:57;;;;;;;;;;;12.90;99.90;;;;;;4985812;28;19910;-63
2022/07/04 02:06:23;;;;;;;;;;;12.90;99.90;;;;;;4996938;28;19910;-63
2022/07/04 02:13:00;;;;;;;;;;;13.20;99.90;;;;;;4995838;28;19965;-63
2022/07/04 02:14:18;;;;;;;;;;;13.20;99.90;;;;;;4995840;28;19922;-63
2022/07/04 02:16:44;;;;;;;;;;;13.20;99.90;;;;;;4994735;28;19937;-63
2022/07/04 02:19:09;;;;;;;;;;;13.20;99.90;;;;;;4992618;28;19913;-63
2022/07/04 02:21:35;;;;;;;;;;;13.20;99.90;;;;;;4994165;28;19952;-63
2022/07/04 02:24:00;;;;;;;;;;;13.20;99.90;;;;;;5002267;28;19910;-63
2022/07/04 02:26:26;;;;;;;;;;;13.20;99.90;;;;;;5002342;28;19916;-63
2022/07/04 02:28:52;;;;;;;;;;;13.10;99.90;;;;;;5001767;28;20384;-63
2022/07/04 02:31:17;;;;;;;;;;;13.10;99.90;;;;;;5001750;28;20262;-63
2022/07/04 02:33:43;;;;;;;;;;;12.90;99.90;;;;;;4999584;28;20004;-63
2022/07/04 02:36:08;;;;;;;;;;;12.70;99.90;;;;;;4994787;28;20393;-63
2022/07/04 02:38:34;;;;;;;;;;;12.70;99.90;;;;;;4999595;28;20159;-63
2022/07/04 02:40:59;;;;;;;;;;;12.60;99.90;;;;;;4995975;28;20362;-63
2022/07/04 02:43:25;;;;;;;;;;;12.70;99.90;;;;;;5000136;28;19914;-63
2022/07/04 02:45:50;;;;;;;;;;;12.50;99.90;;;;;;5002003;28;19913;-63
2022/07/04 02:48:16;;;;;;;;;;;12.40;99.90;;;;;;5002194;28;19917;-63
2022/07/04 02:50:41;;;;;;;;;;;12.30;99.90;;;;;;5002295;28;19933;-63
2022/07/04 02:53:07;;;;;;;;;;;12.30;99.90;;;;;;4995745;28;19914;-63
2022/07/04 02:55:32;;;;;;;;;;;12.40;99.90;;;;;;5007372;28;20326;-63
2022/07/04 02:57:58;;;;;;;;;;;12.60;99.90;;;;;;4987360;28;19916;-63
2022/07/04 03:00:23;;;;;;;;;;;12.60;99.90;;;;;;4995210;28;20297;-63
2022/07/04 03:02:49;;;;;;;;;;;12.60;99.90;;;;;;4995115;28;19949;-63
2022/07/04 03:05:14;;;;;;;;;;;12.60;99.90;;;;;;4999958;28;19920;-63
2022/07/04 03:07:40;;;;;;;;;;;12.60;99.90;;;;;;5003510;28;20597;-63
2022/07/04 03:10:06;;;;;;;;;;;12.70;99.90;;;;;;4999616;28;20293;-63
2022/07/04 03:12:31;;;;;;;;;;;12.50;99.90;;;;;;5001261;28;19910;-63
2022/07/04 03:14:59;;;;;;;;;;;12.40;99.90;;;;;;4995189;28;19949;-63
2022/07/04 03:17:29;;;;;;;;;;;12.30;99.90;;;;;;4998714;28;20308;-63
2022/07/04 03:19:54;;;;;;;;;;;12.20;99.90;;;;;;4995074;28;20048;-63
2022/07/04 03:22:20;;;;;;;;;;;12.00;99.90;;;;;;5001798;28;20436;-63
2022/07/04 03:24:45;;;;;;;;;;;11.80;99.90;;;;;;4989989;28;19909;-63
2022/07/04 03:27:11;;;;;;;;;;;11.90;99.90;;;;;;4998989;28;19921;-63
2022/07/04 03:29:36;;;;;;;;;;;11.90;99.90;;;;;;4996224;28;19910;-63
2022/07/04 03:32:02;;;;;;;;;;;11.90;99.90;;;;;;4998003;28;19913;-63
2022/07/04 03:34:28;;;;;;;;;;;11.80;99.90;;;;;;4983149;28;20313;-63
2022/07/04 03:36:53;;;;;;;;;;;11.70;99.90;;;;;;4998647;28;20596;-63
2022/07/04 03:39:18;;;;;;;;;;;11.60;99.90;;;;;;4997824;28;19921;-63
2022/07/04 03:41:44;;;;;;;;;;;11.50;99.90;;;;;;5000447;28;19914;-63
2022/07/04 03:44:09;;;;;;;;;;;11.60;99.90;;;;;;5005945;28;19999;-63
2022/07/04 03:46:35;;;;;;;;;;;11.70;99.90;;;;;;5000781;28;19910;-63
2022/07/04 03:49:00;;;;;;;;;;;11.80;99.90;;;;;;4994156;28;20266;-63
2022/07/04 03:51:26;;;;;;;;;;;12.20;99.90;;;;;;5001955;28;20303;-63
2022/07/04 03:53:51;;;;;;;;;;;12.40;99.90;;;;;;5002271;28;19910;-63
2022/07/04 03:56:17;;;;;;;;;;;12.60;99.90;;;;;;5004920;28;19956;-63
2022/07/04 03:58:43;;;;;;;;;;;12.50;99.90;;;;;;5000875;28;19941;-63
2022/07/04 04:01:08;;;;;;;;;;;12.50;99.90;;;;;;5001373;28;20336;-63
2022/07/04 04:06:18;;;;;;;;;;;12.50;99.90;;;;;;5003468;28;20003;-64
2022/07/04 04:08:44;;;;;;;;;;;12.60;99.90;;;;;;5001835;28;20417;-63
2022/07/04 04:11:09;;;;;;;;;;;12.80;99.90;;;;;;5001057;28;19920;-63
2022/07/04 04:13:35;;;;;;;;;;;13.00;99.90;;;;;;5005218;28;20291;-64
2022/07/04 04:16:01;;;;;;;;;;;13.10;99.90;;;;;;5003496;28;19925;-63
2022/07/04 04:18:26;;;;;;;;;;;13.20;99.90;;;;;;4996635;28;19909;-63
2022/07/04 04:20:52;;;;;;;;;;;13.30;99.90;;;;;;5002188;28;19913;-63
2022/07/04 04:23:17;;;;;;;;;;;13.20;99.90;;;;;;5000886;28;19928;-63
2022/07/04 04:25:43;;;;;;;;;;;13.10;99.90;;;;;;4981190;28;19914;-63
2022/07/04 04:28:08;;;;;;;;;;;13.10;99.90;;;;;;4996481;28;19917;-63
2022/07/04 04:30:34;;;;;;;;;;;13.20;99.90;;;;;;4994417;28;19929;-63
2022/07/04 04:33:00;;;;;;;;;;;13.50;99.90;;;;;;4993943;28;20641;-63
2022/07/04 04:35:25;;;;;;;;;;;13.70;99.90;;;;;;4995623;28;20448;-63
2022/07/04 04:37:51;;;;;;;;;;;13.70;99.90;;;;;;5001250;28;20413;-63
2022/07/04 04:40:17;;;;;;;;;;;13.80;99.90;;;;;;4967344;28;20424;-63
2022/07/04 04:42:42;;;;;;;;;;;13.90;99.90;;;;;;4997601;28;20024;-63
2022/07/04 04:45:08;;;;;;;;;;;13.90;99.90;;;;;;4996915;28;20009;-63
2022/07/04 04:47:34;;;;;;;;;;;14.10;99.90;;;;;;4995387;28;20000;-64
2022/07/04 04:50:00;;;;;;;;;;;14.10;99.90;;;;;;4994858;28;19956;-64
2022/07/04 04:52:26;;;;;;;;;;;14.20;99.90;;;;;;4979548;28;19965;-64
2022/07/04 04:54:51;;;;;;;;;;;14.30;99.90;;;;;;4996605;28;19917;-64
2022/07/04 04:57:17;;;;;;;;;;;14.30;99.90;;;;;;4997100;28;19985;-64
2022/07/04 04:59:42;;;;;;;;;;;14.40;99.90;;;;;;5000868;28;19959;-64
2022/07/04 05:02:08;;;;;;;;;;;14.40;99.90;;;;;;5003838;28;20007;-64
2022/07/04 05:04:34;;;;;;;;;;;14.40;99.90;;;;;;4974924;28;20004;-64
2022/07/04 05:06:59;;;;;;;;;;;14.50;99.90;;;;;;5001493;28;19914;-64
2022/07/04 05:09:25;;;;;;;;;;;14.60;99.90;;;;;;5001093;28;19941;-64
2022/07/04 05:11:50;;;;;;;;;;;14.50;99.90;;;;;;4996138;28;19914;-64
2022/07/04 05:14:16;;;;;;;;;;;14.60;99.90;;;;;;4981655;28;19914;-64
2022/07/04 05:16:42;;;;;;;;;;;14.70;99.90;;;;;;4997076;28;19910;-64
2022/07/04 05:19:07;;;;;;;;;;;14.80;99.90;;;;;;5001224;28;19909;-64
2022/07/04 05:21:33;;;;;;;;;;;14.90;99.90;;;;;;4996664;28;19913;-64
2022/07/04 05:23:58;;;;;;;;;;;14.90;99.90;;;;;;4996613;28;19914;-64
2022/07/04 05:26:24;;;;;;;;;;;15.00;99.90;;;;;;5003509;28;19910;-63
2022/07/04 05:28:49;;;;;;;;;;;15.10;99.90;;;;;;4986237;28;19924;-64
2022/07/04 05:31:15;;;;;;;;;;;15.10;99.90;;;;;;4994051;28;20290;-64
2022/07/04 05:33:41;;;;;;;;;;;15.30;99.90;;;;;;5000883;28;19920;-64
2022/07/04 05:36:06;;;;;;;;;;;15.30;99.90;;;;;;4995950;28;20008;-64
2022/07/04 05:38:32;;;;;;;;;;;15.40;99.90;;;;;;4998300;28;19918;-64
2022/07/04 05:40:57;;;;;;;;;;;15.40;99.90;;;;;;4998432;28;20203;-64
2022/07/04 05:43:25;;;;;;;;;;;15.60;99.90;;;;;;4996215;28;19941;-63
2022/07/04 05:45:50;;;;;;;;;;;15.60;99.90;;;;;;4985241;28;19918;-64
2022/07/04 05:48:16;;;;;;;;;;;15.70;99.90;;;;;;5002324;28;20025;-64
2022/07/04 05:50:42;;;;;;;;;;;15.70;99.90;;;;;;4993868;28;19914;-64
2022/07/04 05:53:07;;;;;;;;;;;15.80;99.90;;;;;;4996509;28;20373;-64
2022/07/04 05:55:34;;;;;;;;;;;15.80;99.90;;;;;;4998137;28;19913;-64
2022/07/04 05:58:00;;;;;;;;;;;16.00;99.90;;;;;;5002829;28;19972;-64
2022/07/04 06:00:25;;;;;;;;;;;16.10;99.90;;;;;;5005934;28;19968;-64
2022/07/04 06:02:51;;;;;;;;;;;16.10;99.90;;;;;;4999659;28;19910;-63
2022/07/04 06:05:16;;;;;;;;;;;16.10;99.90;;;;;;4984579;28;19914;-63
2022/07/04 06:07:42;;;;;;;;;;;16.20;99.90;;;;;;4998082;28;19922;-63
2022/07/04 06:10:08;;;;;;;;;;;16.30;99.90;;;;;;4993917;28;19913;-63
2022/07/04 06:12:34;;;;;;;;;;;16.30;99.90;;;;;;4997721;28;20444;-63
2022/07/04 06:14:59;;;;;;;;;;;16.40;99.90;;;;;;4995633;28;19939;-63
2022/07/04 06:17:25;;;;;;;;;;;16.50;99.90;;;;;;5004137;28;19918;-64
2022/07/04 06:19:50;;;;;;;;;;;16.50;99.90;;;;;;4990250;28;19957;-64
2022/07/04 06:22:16;;;;;;;;;;;16.50;99.90;;;;;;4996556;28;19914;-64
2022/07/04 06:24:41;;;;;;;;;;;16.60;99.90;;;;;;5004020;28;19910;-64
2022/07/04 06:27:07;;;;;;;;;;;16.60;99.90;;;;;;4995534;28;20048;-64
2022/07/04 06:29:32;;;;;;;;;;;16.70;99.90;;;;;;5000021;28;19932;-64
2022/07/04 06:31:58;;;;;;;;;;;16.70;99.90;;;;;;4979889;28;19910;-63
2022/07/04 06:37:08;;;;;;;;;;;16.90;99.90;;;;;;4993839;28;19921;-64
2022/07/04 06:39:33;;;;;;;;;;;17.00;99.90;;;;;;4993343;28;19917;-63
2022/07/04 06:41:59;;;;;;;;;;;17.20;99.90;;;;;;4996489;28;19937;-64
2022/07/04 06:44:24;;;;;;;;;;;17.10;99.90;;;;;;4980809;28;19910;-63
2022/07/04 06:46:50;;;;;;;;;;;17.10;99.90;;;;;;4982775;28;19932;-64
2022/07/04 06:49:16;;;;;;;;;;;17.20;99.90;;;;;;4987046;28;20340;-64
2022/07/04 06:51:42;;;;;;;;;;;17.30;99.90;;;;;;4993658;28;20047;-64
2022/07/04 06:54:07;;;;;;;;;;;17.20;99.90;;;;;;4990508;28;19956;-64
2022/07/04 06:56:33;;;;;;;;;;;17.20;99.90;;;;;;4996490;28;19909;-64
2022/07/04 06:58:59;;;;;;;;;;;17.30;99.90;;;;;;4994532;28;20313;-64
2022/07/04 07:01:24;;;;;;;;;;;17.50;99.90;;;;;;4989294;28;19913;-64
2022/07/04 07:03:50;;;;;;;;;;;17.40;99.90;;;;;;5000529;28;19914;-64
2022/07/04 07:06:16;;;;;;;;;;;17.40;99.90;;;;;;4985386;28;19918;-64
2022/07/04 07:08:41;;;;;;;;;;;17.40;99.90;;;;;;5002218;28;19925;-64
2022/07/04 07:11:13;;;;;;;;;;;17.50;99.90;;;;;;4995104;28;19910;-64
2022/07/04 07:13:43;;;;;;;;;;;17.60;99.90;;;;;;5001215;28;19921;-64
2022/07/04 07:16:08;;;;;;;;;;;17.70;99.90;;;;;;4994634;28;19926;-64
2022/07/04 07:18:34;;;;;;;;;;;17.80;99.90;;;;;;5000406;28;19972;-63
2022/07/04 07:20:59;;;;;;;;;;;17.80;99.90;;;;;;5003166;28;20211;-63
2022/07/04 07:23:25;;;;;;;;;;;17.80;99.90;;;;;;4992196;28;19972;-64
2022/07/04 07:25:50;;;;;;;;;;;17.90;99.90;;;;;;5001146;28;20059;-64
2022/07/04 07:28:16;;;;;;;;;;;18.00;99.90;;;;;;4998129;28;19910;-64
2022/07/04 07:30:41;;;;;;;;;;;18.20;99.90;;;;;;4997396;28;19925;-64
2022/07/04 07:33:07;;;;;;;;;;;18.20;99.90;;;;;;4994900;28;20340;-64
2022/07/04 07:35:32;;;;;;;;;;;18.20;99.90;;;;;;5005021;28;19963;-63
2022/07/04 07:37:58;;;;;;;;;;;18.20;99.90;;;;;;4998571;28;19914;-63
2022/07/04 07:40:24;;;;;;;;;;;18.30;99.90;;;;;;4997874;28;19921;-63
2022/07/04 07:42:49;;;;;;;;;;;18.20;99.90;;;;;;5004569;28;19913;-64
2022/07/04 07:45:15;;;;;;;;;;;18.20;99.90;;;;;;4991844;28;20020;-64
2022/07/04 07:47:40;;;;;;;;;;;18.30;99.90;;;;;;4997444;28;19914;-64
2022/07/04 07:50:06;;;;;;;;;;;18.40;99.90;;;;;;4999991;28;19910;-63
2022/07/04 07:52:32;;;;;;;;;;;18.70;99.90;;;;;;4998008;28;20269;-63
2022/07/04 07:54:58;;;;;;;;;;;18.70;99.90;;;;;;4992048;28;19910;-63
2022/07/04 07:57:23;;;;;;;;;;;18.70;99.90;;;;;;4995910;28;19917;-63
2022/07/04 07:59:49;;;;;;;;;;;18.70;99.90;;;;;;4996750;28;19917;-63
2022/07/04 08:02:14;;;;;;;;;;;18.90;99.90;;;;;;4998643;28;19914;-63
2022/07/04 08:04:41;;;;;;;;;;;19.10;99.90;;;;;;4997682;28;19914;-63
2022/07/04 08:07:11;;;;;;;;;;;19.00;99.90;;;;;;5000675;28;19917;-64
2022/07/04 08:09:37;;;;;;;;;;;19.00;99.90;;;;;;4980241;28;20001;-64
2022/07/04 08:12:04;;;;;;;;;;;19.10;99.90;;;;;;4983239;28;19948;-64
2022/07/04 08:14:30;;;;;;;;;;;19.40;99.90;;;;;;4987929;28;19909;-64
2022/07/04 08:16:56;;;;;;;;;;;20.00;99.90;;;;;;5004271;28;20185;-64
2022/07/04 08:19:22;;;;;;;;;;;20.60;99.60;;;;;;4984919;28;19909;-64
2022/07/04 08:21:47;;;;;;;;;;;20.80;98.70;;;;;;4999980;28;19914;-64
2022/07/04 08:24:16;;;;;;;;;;;21.40;98.10;;;;;;5002271;28;19917;-64
2022/07/04 08:26:42;;;;;;;;;;;21.90;97.60;;;;;;4988748;28;19910;-64
2022/07/04 08:29:16;;;;;;;;;;;22.40;96.20;;;;;;5003328;28;19909;-64
2022/07/04 08:31:42;;;;;;;;;;;22.70;94.40;;;;;;4986540;28;19959;-64
2022/07/04 08:34:07;;;;;;;;;;;22.80;94.00;;;;;;5002304;28;19914;-64
2022/07/04 08:36:33;;;;;;;;;;;22.80;93.10;;;;;;4987802;28;19949;-64
2022/07/04 08:38:58;;;;;;;;;;;22.70;93.70;;;;;;5002629;28;19914;-64
2022/07/04 08:41:24;;;;;;;;;;;23.40;92.40;;;;;;5000997;28;19918;-64
2022/07/04 08:43:51;;;;;;;;;;;23.80;91.70;;;;;;4999648;28;19921;-64
2022/07/04 08:46:17;;;;;;;;;;;23.60;90.30;;;;;;5001718;28;19910;-64
2022/07/04 08:48:48;;;;;;;;;;;22.60;91.50;;;;;;5002663;28;19909;-64
2022/07/04 08:51:18;;;;;;;;;;;22.60;90.70;;;;;;4998133;28;19910;-64
2022/07/04 08:53:50;;;;;;;;;;;23.00;90.10;;;;;;4980813;28;19964;-64
2022/07/04 08:59:01;;;;;;;;;;;23.20;90.10;;;;;;5000474;28;19923;-64
2022/07/04 09:01:28;;;;;;;;;;;23.60;90.30;;;;;;4999950;28;20301;-64
2022/07/04 09:03:54;;;;;;;;;;;24.60;88.00;;;;;;5004613;28;20001;-64
2022/07/04 09:06:20;;;;;;;;;;;24.50;85.80;;;;;;5000669;28;20324;-64
2022/07/04 09:08:45;;;;;;;;;;;24.30;83.30;;;;;;4999575;28;19925;-64
2022/07/04 09:11:12;;;;;;;;;;;23.40;83.70;;;;;;5001381;28;19914;-64
2022/07/04 09:13:37;;;;;;;;;;;23.50;85.00;;;;;;5002968;28;20325;-64
2022/07/04 09:16:03;;;;;;;;;;;23.70;85.70;;;;;;5000322;28;19964;-64
2022/07/04 09:18:30;;;;;;;;;;;24.30;81.50;;;;;;5005976;28;19928;-64
2022/07/04 09:20:57;;;;;;;;;;;24.90;82.30;;;;;;4986507;28;20318;-64
2022/07/04 09:23:27;;;;;;;;;;;24.90;82.60;;;;;;5001266;28;19910;-64
2022/07/04 09:26:06;;;;;;;;;;;25.00;80.90;;;;;;5000687;28;20320;-64
2022/07/04 09:28:32;;;;;;;;;;;24.50;80.80;;;;;;4999897;28;19993;-64
2022/07/04 09:30:58;;;;;;;;;;;24.90;79.60;;;;;;5004889;28;19948;-64
2022/07/04 09:33:43;;;;;;;;;;;24.90;79.50;;;;;;4984278;28;19917;-64
2022/07/04 09:36:12;;;;;;;;;;;24.50;79.50;;;;;;5000173;28;19910;-64
2022/07/04 09:38:38;;;;;;;;;;;25.10;78.50;;;;;;5000878;28;19941;-64
2022/07/04 09:44:05;;;;;;;;;;;25.30;77.90;;;;;;5001321;28;19917;-64
2022/07/04 09:46:31;;;;;;;;;;;24.90;77.70;;;;;;5005367;28;19914;-64
2022/07/04 09:48:56;;;;;;;;;;;25.20;76.50;;;;;;5001343;28;19953;-64
2022/07/04 09:51:35;;;;;;;;;;;25.10;78.10;;;;;;5001218;28;20002;-64
2022/07/04 09:54:12;;;;;;;;;;;25.60;75.60;;;;;;5001709;28;20336;-64
2022/07/04 09:56:45;;;;;;;;;;;25.90;75.30;;;;;;4999074;28;19914;-64
2022/07/04 09:59:11;;;;;;;;;;;25.80;74.70;;;;;;5000116;28;19909;-64
2022/07/04 10:01:36;;;;;;;;;;;26.50;75.00;;;;;;5000046;28;19968;-64
2022/07/04 10:04:03;;;;;;;;;;;27.40;73.20;;;;;;4997398;28;19910;-64
2022/07/04 10:06:31;;;;;;;;;;;27.30;73.60;;;;;;4998492;28;20349;-65
2022/07/04 10:09:05;;;;;;;;;;;27.30;72.70;;;;;;5003073;28;20000;-64
2022/07/04 10:11:34;;;;;;;;;;;27.20;71.30;;;;;;4998060;28;20021;-64
2022/07/04 10:14:00;;;;;;;;;;;27.10;71.20;;;;;;5001234;28;20178;-64
2022/07/04 10:16:26;;;;;;;;;;;26.70;72.10;;;;;;4996493;28;19925;-64
2022/07/04 10:18:52;;;;;;;;;;;27.10;71.40;;;;;;4999423;28;19913;-64
2022/07/04 10:21:17;;;;;;;;;;;27.60;71.40;;;;;;4994820;28;20069;-65
2022/07/04 10:23:44;;;;;;;;;;;28.00;70.90;;;;;;4998391;28;20025;-64
2022/07/04 10:26:10;;;;;;;;;;;27.30;69.80;;;;;;4996402;28;19956;-64
2022/07/04 10:28:37;;;;;;;;;;;27.30;68.90;;;;;;4994130;28;19910;-64
2022/07/04 10:31:03;;;;;;;;;;;28.10;69.60;;;;;;5001809;28;19948;-64
2022/07/04 10:33:29;;;;;;;;;;;28.20;69.60;;;;;;4994221;28;19909;-64
2022/07/04 10:35:55;;;;;;;;;;;27.50;68.00;;;;;;4980667;28;19923;-64
2022/07/04 10:38:30;;;;;;;;;;;26.10;70.00;;;;;;4996223;28;20008;-64
2022/07/04 10:40:56;;;;;;;;;;;26.60;69.90;;;;;;4993319;28;20292;-64
2022/07/04 10:43:25;;;;;;;;;;;27.80;68.20;;;;;;4998086;28;19914;-65
2022/07/04 10:45:51;;;;;;;;;;;27.70;67.50;;;;;;4992035;28;19961;-65
2022/07/04 10:48:23;;;;;;;;;;;28.10;67.10;;;;;;4997988;28;19976;-64
2022/07/04 10:50:59;;;;;;;;;;;28.00;66.80;;;;;;4996168;28;19917;-64
2022/07/04 10:53:24;;;;;;;;;;;29.10;66.40;;;;;;4982192;28;19922;-64
2022/07/04 10:55:50;;;;;;;;;;;28.10;65.80;;;;;;5003808;28;20344;-64
2022/07/04 10:58:34;;;;;;;;;;;28.50;65.70;;;;;;5003355;28;20381;-64
2022/07/04 11:01:13;;;;;;;;;;;28.40;67.00;;;;;;4993530;28;19914;-64
2022/07/04 11:03:49;;;;;;;;;;;28.50;65.60;;;;;;4999264;28;19945;-64
2022/07/04 11:06:29;;;;;;;;;;;28.40;65.90;;;;;;5002059;28;20301;-64
2022/07/04 11:09:14;;;;;;;;;;;28.30;65.30;;;;;;4999675;28;20282;-64
2022/07/04 11:11:59;;;;;;;;;;;26.20;67.00;;;;;;5002366;28;20031;-64
2022/07/04 11:14:32;;;;;;;;;;;27.20;67.80;;;;;;4996514;28;19937;-64
2022/07/04 11:16:58;;;;;;;;;;;27.20;65.90;;;;;;4998042;28;19989;-64
2022/07/04 11:19:23;;;;;;;;;;;27.40;67.80;;;;;;4997240;28;19921;-64
2022/07/04 11:21:49;;;;;;;;;;;28.90;66.20;;;;;;4993982;28;19949;-64
2022/07/04 11:24:14;;;;;;;;;;;28.00;65.60;;;;;;4997742;28;19910;-64
2022/07/04 11:26:40;;;;;;;;;;;26.90;66.20;;;;;;4978762;28;19914;-64
2022/07/04 11:29:05;;;;;;;;;;;25.70;67.70;;;;;;5003448;28;19913;-64
2022/07/04 11:31:42;;;;;;;;;;;25.10;69.50;;;;;;4979910;28;19914;-64
2022/07/04 11:34:08;;;;;;;;;;;25.50;70.00;;;;;;4999790;28;20324;-64
2022/07/04 11:36:33;;;;;;;;;;;27.90;66.50;;;;;;4995717;28;19917;-64
2022/07/04 11:39:00;;;;;;;;;;;28.80;63.60;;;;;;4976825;28;20020;-64
2022/07/04 11:47:10;;;;;;;;;;;25.80;69.00;;;;;;5000527;28;19937;-64
2022/07/04 11:49:36;;;;;;;;;;;25.00;70.00;;;;;;5004097;28;19910;-64
2022/07/04 11:52:02;;;;;;;;;;;25.10;70.60;;;;;;5000125;28;19971;-64
2022/07/04 11:54:27;;;;;;;;;;;25.20;69.40;;;;;;4983697;28;19913;-64
2022/07/04 11:57:07;;;;;;;;;;;25.30;69.20;;;;;;4988456;28;19910;-64
2022/07/04 11:59:33;;;;;;;;;;;25.20;68.90;;;;;;5002738;28;19914;-64
2022/07/04 12:02:09;;;;;;;;;;;27.50;68.00;;;;;;5008745;28;19963;-64
2022/07/04 12:04:34;;;;;;;;;;;29.20;64.30;;;;;;4991318;28;20489;-64
2022/07/04 12:07:07;;;;;;;;;;;28.10;65.00;;;;;;4987187;28;20284;-64
2022/07/04 12:09:33;;;;;;;;;;;28.20;65.60;;;;;;5001933;28;19930;-64
2022/07/04 12:11:59;;;;;;;;;;;29.50;62.30;;;;;;5002352;28;19964;-64
2022/07/04 12:14:25;;;;;;;;;;;31.00;60.90;;;;;;4984395;28;19909;-64
2022/07/04 12:17:09;;;;;;;;;;;30.90;59.90;;;;;;5005423;28;19917;-64
2022/07/04 12:19:35;;;;;;;;;;;32.60;60.00;;;;;;5001172;28;20355;-64
2022/07/04 12:22:00;;;;;;;;;;;32.70;56.50;;;;;;5000536;28;19917;-64
2022/07/04 12:24:26;;;;;;;;;;;34.20;57.30;;;;;;4997270;28;19944;-64
2022/07/04 12:26:52;;;;;;;;;;;33.00;56.20;;;;;;5002445;28;19913;-64
2022/07/04 12:29:24;;;;;;;;;;;30.80;58.80;;;;;;4997524;28;19976;-64
2022/07/04 12:31:54;;;;;;;;;;;29.80;60.00;;;;;;5001410;28;19968;-64
2022/07/04 12:34:20;;;;;;;;;;;28.00;61.70;;;;;;5005298;28;19910;-64
2022/07/04 12:36:52;;;;;;;;;;;26.80;63.10;;;;;;5001816;28;19941;-64
2022/07/04 12:39:27;;;;;;;;;;;26.50;64.00;;;;;;4992910;28;19997;-64
2022/07/04 12:42:03;;;;;;;;;;;26.60;63.80;;;;;;4999510;28;20447;-64
2022/07/04 12:44:29;;;;;;;;;;;26.40;65.20;;;;;;4996574;28;19925;-64
2022/07/04 12:46:58;;;;;;;;;;;27.10;64.10;;;;;;5000358;28;19958;-64
2022/07/04 12:49:23;;;;;;;;;;;27.00;64.20;;;;;;4993570;28;19936;-64
2022/07/04 12:51:49;;;;;;;;;;;27.00;63.70;;;;;;4995833;28;20008;-64
2022/07/04 12:54:15;;;;;;;;;;;26.70;65.90;;;;;;5000688;28;20349;-64
2022/07/04 12:56:41;;;;;;;;;;;25.70;65.50;;;;;;4998435;28;20568;-64
2022/07/04 12:59:11;;;;;;;;;;;25.70;66.30;;;;;;4996349;28;20003;-64
2022/07/04 13:01:37;;;;;;;;;;;25.70;65.60;;;;;;4999308;28;20004;-64
2022/07/04 13:04:02;;;;;;;;;;;25.90;64.90;;;;;;4997373;28;19914;-64
2022/07/04 13:06:28;;;;;;;;;;;26.30;65.00;;;;;;4999671;28;20238;-64
2022/07/04 13:08:54;;;;;;;;;;;25.80;64.00;;;;;;4989388;28;20293;-64
2022/07/04 13:14:04;;;;;;;;;;;25.50;64.90;;;;;;4993175;28;19940;-64
2022/07/04 13:16:29;;;;;;;;;;;25.20;66.00;;;;;;4995191;28;19910;-64
2022/07/04 13:18:55;;;;;;;;;;;25.10;66.20;;;;;;4999161;28;20378;-64
2022/07/04 13:21:20;;;;;;;;;;;25.50;66.00;;;;;;4981850;28;19914;-64
2022/07/04 13:23:46;;;;;;;;;;;27.30;65.50;;;;;;4978355;28;19910;-64
2022/07/04 13:26:11;;;;;;;;;;;29.10;63.00;;;;;;4999156;28;19910;-64
2022/07/04 13:28:37;;;;;;;;;;;31.10;59.90;;;;;;4997232;28;19914;-64
2022/07/04 13:31:03;;;;;;;;;;;30.10;59.40;;;;;;4996546;28;19910;-64
2022/07/04 13:33:29;;;;;;;;;;;28.70;60.20;;;;;;4997285;28;20285;-64
2022/07/04 13:35:54;;;;;;;;;;;28.00;62.70;;;;;;4999363;28;19909;-64
2022/07/04 13:38:20;;;;;;;;;;;27.80;61.10;;;;;;4996401;28;19914;-64
2022/07/04 13:40:45;;;;;;;;;;;28.70;61.60;;;;;;4991881;28;19917;-64
2022/07/04 13:43:11;;;;;;;;;;;29.20;60.80;;;;;;4999098;28;20258;-64
2022/07/04 13:45:39;;;;;;;;;;;30.30;60.60;;;;;;4990755;28;19937;-64
2022/07/04 13:48:05;;;;;;;;;;;30.40;59.30;;;;;;5001078;28;20004;-64
2022/07/04 13:50:30;;;;;;;;;;;30.50;60.70;;;;;;4991086;28;19942;-65
2022/07/04 13:52:56;;;;;;;;;;;30.30;59.40;;;;;;4995391;28;20369;-65
2022/07/04 13:55:21;;;;;;;;;;;30.10;59.70;;;;;;4995544;28;20378;-64
2022/07/04 13:57:47;;;;;;;;;;;28.90;60.70;;;;;;4997615;28;19916;-64
2022/07/04 14:00:12;;;;;;;;;;;27.40;62.60;;;;;;4997113;28;20280;-64
2022/07/04 14:02:38;;;;;;;;;;;26.80;63.10;;;;;;4995155;28;19926;-64
2022/07/04 14:05:04;;;;;;;;;;;26.80;63.90;;;;;;4976510;28;19910;-64
2022/07/04 14:07:29;;;;;;;;;;;26.40;66.50;;;;;;4986351;28;19944;-64
2022/07/04 14:09:55;;;;;;;;;;;27.10;65.00;;;;;;4977268;28;19963;-64
2022/07/04 14:12:20;;;;;;;;;;;29.70;62.30;;;;;;4994857;28;20001;-64
2022/07/04 14:14:46;;;;;;;;;;;31.40;60.90;;;;;;4999252;28;19965;-64
2022/07/04 14:17:12;;;;;;;;;;;32.70;57.20;;;;;;4978985;28;19910;-64
2022/07/04 14:19:37;;;;;;;;;;;32.60;58.70;;;;;;4995135;28;20003;-64
2022/07/04 14:22:03;;;;;;;;;;;33.80;56.10;;;;;;4994964;28;19976;-64
2022/07/04 14:24:28;;;;;;;;;;;33.60;55.20;;;;;;4997270;28;19956;-64
2022/07/04 14:26:54;;;;;;;;;;;33.30;54.90;;;;;;4995775;28;20386;-64
2022/07/04 14:29:20;;;;;;;;;;;34.30;54.90;;;;;;5001934;28;19957;-65
2022/07/04 14:31:46;;;;;;;;;;;32.20;54.90;;;;;;4991865;28;20460;-65
2022/07/04 14:34:12;;;;;;;;;;;30.60;58.40;;;;;;4998049;28;19989;-65
2022/07/04 14:36:38;;;;;;;;;;;30.00;58.30;;;;;;4997909;28;20380;-65